Time;durP1;ratioP1;P1;durP2;ratioP2;P2;SDS_P1;SDS_P2;PMS_P1;PMS_P2;Temp;Humidity;BMP_temperature;BMP_pressure;BME280_temperature;BME280_humidity;BME280_pressure;Samples;Min_cycle;Max_cycle;Signal;HPM_P1;HPM_P2
2022/08/24 00:01:21;;;;;;;21.70;14.32;;;;;;;22.02;100.00;99439.94;5023318;28;20353;-72
2022/08/24 00:03:47;;;;;;;19.45;15.02;;;;;;;21.85;100.00;99429.16;5025986;28;20093;-72
2022/08/24 00:06:18;;;;;;;25.90;15.07;;;;;;;21.75;100.00;99430.81;5024986;28;20038;-72
2022/08/24 00:08:44;;;;;;;27.02;15.38;;;;;;;21.73;100.00;99424.84;5023634;28;20101;-72
2022/08/24 00:11:09;;;;;;;23.13;14.35;;;;;;;21.79;100.00;99427.41;5022591;28;20155;-72
2022/08/24 00:13:35;;;;;;;22.30;13.90;;;;;;;21.81;100.00;99425.28;5021224;28;20351;-72
2022/08/24 00:16:01;;;;;;;29.38;13.95;;;;;;;21.79;100.00;99432.78;5007018;28;20022;-72
2022/08/24 00:18:26;;;;;;;21.52;13.85;;;;;;;21.79;100.00;99431.97;5006559;28;20105;-72
2022/08/24 00:20:52;;;;;;;18.13;12.77;;;;;;;21.87;100.00;99445.91;5023354;28;20057;-72
2022/08/24 00:23:18;;;;;;;23.35;13.73;;;;;;;21.76;100.00;99435.97;5021272;28;20041;-72
2022/08/24 00:25:44;;;;;;;23.33;13.07;;;;;;;21.81;100.00;99432.53;5021816;28;20025;-72
2022/08/24 00:28:09;;;;;;;22.27;12.65;;;;;;;21.47;100.00;99432.47;5023618;28;20049;-72
2022/08/24 00:30:35;;;;;;;22.02;13.88;;;;;;;21.56;100.00;99436.41;5022845;28;20219;-72
2022/08/24 00:33:01;;;;;;;22.38;13.80;;;;;;;21.28;100.00;99434.53;5022049;28;20041;-72
2022/08/24 00:35:27;;;;;;;22.00;13.63;;;;;;;21.51;100.00;99447.09;5022362;28;20042;-72
2022/08/24 00:37:54;;;;;;;23.10;13.57;;;;;;;21.53;100.00;99444.97;5025602;28;20080;-72
2022/08/24 00:40:32;;;;;;;21.30;12.95;;;;;;;21.64;100.00;99438.72;5021134;28;20086;-72
2022/08/24 00:43:03;;;;;;;22.00;14.35;;;;;;;21.71;100.00;99435.06;5023677;28;20091;-72
2022/08/24 00:45:32;;;;;;;21.58;12.70;;;;;;;21.73;100.00;99455.31;5023112;28;20036;-72
2022/08/24 00:48:03;;;;;;;21.60;13.38;;;;;;;21.43;100.00;99455.56;5026364;28;20389;-72
2022/08/24 00:50:37;;;;;;;22.45;12.73;;;;;;;21.23;100.00;99449.78;5042612;28;20096;-72
2022/08/24 00:53:08;;;;;;;20.10;12.45;;;;;;;21.12;100.00;99455.97;5038601;28;20065;-72
2022/08/24 00:55:51;;;;;;;23.27;14.13;;;;;;;21.19;100.00;99446.69;5027537;28;20034;-72
2022/08/24 00:58:22;;;;;;;19.27;13.27;;;;;;;21.21;100.00;99449.16;5025170;28;20303;-72
2022/08/24 01:00:59;;;;;;;23.83;13.35;;;;;;;21.42;100.00;99435.06;5025541;28;20030;-72
2022/08/24 01:03:26;;;;;;;24.00;12.82;;;;;;;21.38;100.00;99438.47;5028510;28;20041;-72
2022/08/24 01:05:53;;;;;;;24.52;12.63;;;;;;;21.50;100.00;99425.78;5025001;28;20097;-72
2022/08/24 01:08:20;;;;;;;27.35;13.43;;;;;;;21.62;100.00;99440.03;5025322;28;20052;-72
2022/08/24 01:10:52;;;;;;;20.33;11.70;;;;;;;21.52;100.00;99445.22;5027258;28;20025;-72
2022/08/24 01:13:19;;;;;;;22.40;12.73;;;;;;;21.62;100.00;99440.84;5026940;28;20099;-72
2022/08/24 01:15:50;;;;;;;22.90;12.98;;;;;;;21.69;100.00;99451.47;5025033;28;20053;-72
2022/08/24 01:21:37;;;;;;;22.05;12.82;;;;;;;21.62;100.00;99456.19;4997550;28;20076;-73
2022/08/24 01:24:05;;;;;;;20.23;12.60;;;;;;;21.56;100.00;99443.69;5043607;28;20037;-73
2022/08/24 01:26:35;;;;;;;18.98;11.07;;;;;;;21.71;100.00;99449.34;5045251;28;20221;-72
2022/08/24 01:29:08;;;;;;;21.65;12.50;;;;;;;21.65;100.00;99456.53;5045282;28;20153;-72
2022/08/24 01:31:33;;;;;;;17.27;11.05;;;;;;;21.80;100.00;99464.06;5045072;28;20025;-72
2022/08/24 01:33:59;;;;;;;19.00;11.07;;;;;;;21.75;100.00;99460.47;5045513;28;20311;-72
2022/08/24 01:36:53;;;;;;;17.45;10.40;;;;;;;21.76;100.00;99462.09;5027311;28;20032;-72
2022/08/24 01:39:24;;;;;;;14.77;10.77;;;;;;;21.79;100.00;99462.44;5042167;28;20041;-72
2022/08/24 01:41:50;;;;;;;17.50;12.00;;;;;;;21.70;100.00;99455.81;5045115;28;20227;-72
2022/08/24 01:44:17;;;;;;;17.25;10.20;;;;;;;21.87;100.00;99463.94;5044914;28;20325;-72
2022/08/24 01:46:44;;;;;;;19.48;10.95;;;;;;;21.90;99.75;99464.28;5044902;28;20063;-72
2022/08/24 01:49:11;;;;;;;18.45;11.30;;;;;;;21.87;99.24;99455.88;5045147;28;20033;-72
2022/08/24 01:51:36;;;;;;;17.67;10.00;;;;;;;21.96;98.66;99459.78;5044768;28;20041;-72
2022/08/24 01:54:02;;;;;;;17.00;11.15;;;;;;;21.90;98.99;99452.69;5044699;28;20232;-72
2022/08/24 01:56:29;;;;;;;23.77;10.88;;;;;;;21.97;99.76;99453.34;5044717;28;20053;-72
2022/08/24 01:58:55;;;;;;;14.98;10.77;;;;;;;21.94;100.00;99449.25;5043715;28;20266;-72
2022/08/24 02:01:21;;;;;;;22.85;11.20;;;;;;;21.99;99.63;99457.44;5044528;28;20018;-72
2022/08/24 02:03:47;;;;;;;17.95;11.68;;;;;;;22.05;99.28;99444.06;5044700;28;20041;-72
2022/08/24 02:06:13;;;;;;;19.67;10.90;;;;;;;22.19;98.34;99465.09;5044644;28;20037;-72
2022/08/24 02:08:38;;;;;;;16.85;11.63;;;;;;;21.95;99.32;99458.16;5044606;28;20078;-72
2022/08/24 02:11:07;;;;;;;16.52;11.93;;;;;;;21.81;100.00;99464.88;5044601;28;20454;-72
2022/08/24 02:13:35;;;;;;;20.90;11.82;;;;;;;21.71;100.00;99462.81;5044516;28;20394;-72
2022/08/24 02:16:00;;;;;;;21.55;12.93;;;;;;;21.75;100.00;99469.38;5035801;28;20037;-72
2022/08/24 02:18:26;;;;;;;18.70;11.40;;;;;;;21.81;100.00;99465.69;5025805;28;20068;-72
2022/08/24 02:20:52;;;;;;;19.60;12.88;;;;;;;21.91;99.81;99467.78;5023624;28;20375;-72
2022/08/24 02:23:18;;;;;;;17.67;12.23;;;;;;;21.97;100.00;99472.22;5024347;28;20093;-73
2022/08/24 02:25:44;;;;;;;15.77;11.90;;;;;;;22.04;99.56;99475.59;5024550;28;20323;-72
2022/08/24 02:28:09;;;;;;;24.85;12.95;;;;;;;22.07;99.25;99475.13;5023220;28;20079;-72
2022/08/24 02:30:35;;;;;;;22.65;11.90;;;;;;;22.14;98.63;99486.56;5025240;28;20026;-72
2022/08/24 02:33:00;;;;;;;25.38;11.93;;;;;;;22.15;97.34;99487.38;5024180;28;20117;-72
2022/08/24 02:35:28;;;;;;;17.52;11.27;;;;;;;22.14;97.25;99486.56;5023806;28;20034;-72
2022/08/24 02:37:54;;;;;;;20.25;11.55;;;;;;;22.11;97.73;99492.44;5025417;28;20084;-72
2022/08/24 02:40:19;;;;;;;19.25;11.45;;;;;;;22.12;97.93;99485.19;5024263;28;20306;-72
2022/08/24 02:42:45;;;;;;;17.77;11.52;;;;;;;22.11;97.45;99489.75;5022973;28;20101;-72
2022/08/24 02:45:11;;;;;;;21.50;12.48;;;;;;;22.08;96.50;99492.94;5022246;28;20040;-72
2022/08/24 02:47:37;;;;;;;20.02;12.68;;;;;;;22.04;96.55;99494.47;5006726;28;20034;-72
2022/08/24 02:50:05;;;;;;;17.45;11.95;;;;;;;22.01;96.79;99497.63;5005792;28;20022;-72
2022/08/24 02:52:31;;;;;;;23.90;11.88;;;;;;;22.00;97.02;99498.69;5023657;28;20065;-73
2022/08/24 02:54:56;;;;;;;19.33;12.25;;;;;;;22.01;97.07;99513.00;5023927;28;20030;-72
2022/08/24 02:57:22;;;;;;;18.25;12.45;;;;;;;21.97;97.24;99516.16;5025705;28;20026;-72
2022/08/24 02:59:47;;;;;;;19.67;11.77;;;;;;;22.00;97.83;99517.56;5023863;28;20029;-72
2022/08/24 03:02:13;;;;;;;17.92;11.50;;;;;;;21.99;97.80;99518.63;5023073;28;20042;-72
2022/08/24 03:04:38;;;;;;;18.00;12.00;;;;;;;21.99;97.62;99505.97;5021952;28;20030;-72
2022/08/24 03:07:04;;;;;;;25.65;14.00;;;;;;;22.07;97.58;99512.06;5024497;28;20096;-72
2022/08/24 03:09:30;;;;;;;18.10;12.50;;;;;;;22.03;98.17;99517.09;5022342;28;20092;-72
2022/08/24 03:11:55;;;;;;;18.20;11.95;;;;;;;22.08;97.66;99516.38;5022200;28;20032;-72
2022/08/24 03:14:20;;;;;;;17.75;11.95;;;;;;;22.08;97.45;99502.91;5023581;28;20036;-72
2022/08/24 03:16:46;;;;;;;21.05;12.90;;;;;;;21.97;97.71;99493.78;5022843;28;20076;-72
2022/08/24 03:19:14;;;;;;;20.98;13.02;;;;;;;22.10;96.93;99503.47;5023562;28;20083;-72
2022/08/24 03:21:40;;;;;;;19.58;12.93;;;;;;;21.99;97.27;99500.56;5023223;28;20036;-72
2022/08/24 03:24:06;;;;;;;19.80;12.70;;;;;;;22.02;97.47;99501.97;5023863;28;20038;-72
2022/08/24 03:26:32;;;;;;;18.60;13.68;;;;;;;21.99;97.83;99499.75;5024411;28;20369;-72
2022/08/24 03:28:57;;;;;;;18.70;12.65;;;;;;;21.99;98.01;99500.56;5022499;28;20042;-72
2022/08/24 03:31:23;;;;;;;20.75;13.93;;;;;;;22.01;98.03;99503.03;5022886;28;20033;-72
2022/08/24 03:33:49;;;;;;;22.42;13.55;;;;;;;22.03;97.51;99509.03;5022812;28;20038;-72
2022/08/24 03:36:14;;;;;;;22.42;13.57;;;;;;;22.05;96.97;99506.09;5023151;28;20152;-72
2022/08/24 03:38:40;;;;;;;19.35;13.38;;;;;;;21.99;97.21;99507.84;5022843;28;20090;-72
2022/08/24 03:41:06;;;;;;;23.35;13.68;;;;;;;21.95;97.61;99515.59;5023501;28;20084;-72
2022/08/24 03:43:47;;;;;;;21.90;13.00;;;;;;;21.87;98.34;99512.47;5021637;28;20025;-72
2022/08/24 03:46:16;;;;;;;21.23;13.68;;;;;;;21.82;98.34;99510.47;5023217;28;20030;-72
2022/08/24 03:48:43;;;;;;;32.05;14.00;;;;;;;21.78;98.45;99512.00;5022061;28;20038;-72
2022/08/24 03:51:14;;;;;;;22.63;13.85;;;;;;;21.63;99.29;99509.84;5022601;28;20084;-72
2022/08/24 03:53:40;;;;;;;16.85;12.60;;;;;;;21.81;98.19;99513.41;5023537;28;20050;-72
2022/08/24 03:56:06;;;;;;;23.17;12.88;;;;;;;21.61;98.54;99498.47;5022916;28;20050;-72
2022/08/24 03:58:34;;;;;;;26.60;13.48;;;;;;;21.70;98.28;99511.56;5021493;28;20080;-72
2022/08/24 04:01:00;;;;;;;25.35;12.60;;;;;;;21.81;97.05;99508.00;5004811;28;20219;-72
2022/08/24 04:03:27;;;;;;;21.92;12.60;;;;;;;21.59;98.34;99510.56;5006971;28;20030;-72
2022/08/24 04:05:52;;;;;;;18.55;13.13;;;;;;;21.65;97.72;99510.41;5021223;28;20108;-72
2022/08/24 04:08:19;;;;;;;25.60;12.80;;;;;;;21.84;96.83;99521.81;5026381;28;20033;-72
2022/08/24 04:10:46;;;;;;;22.90;12.30;;;;;;;21.82;97.06;99523.13;5022065;28;20049;-72
2022/08/24 04:13:11;;;;;;;22.40;11.88;;;;;;;21.94;96.25;99522.03;5021462;28;20040;-72
2022/08/24 04:15:41;;;;;;;18.33;11.30;;;;;;;22.02;95.55;99518.13;5022618;28;20030;-72
2022/08/24 04:18:08;;;;;;;16.00;11.30;;;;;;;21.98;95.93;99520.50;5022550;28;20101;-72
2022/08/24 04:20:42;;;;;;;17.30;11.40;;;;;;;22.04;95.85;99521.44;5021234;28;20033;-73
2022/08/24 04:23:09;;;;;;;16.58;10.52;;;;;;;22.10;95.61;99519.66;5022176;28;20042;-73
2022/08/24 04:25:43;;;;;;;16.58;10.88;;;;;;;22.18;95.42;99524.66;5021487;28;20096;-73
2022/08/24 04:28:09;;;;;;;17.77;10.57;;;;;;;22.18;94.62;99516.56;5022876;28;20034;-72
2022/08/24 04:30:39;;;;;;;14.73;10.50;;;;;;;22.13;95.32;99524.56;5023442;28;20033;-73
2022/08/24 04:33:05;;;;;;;18.40;11.48;;;;;;;22.17;94.84;99529.22;5019886;28;20319;-72
2022/08/24 04:35:30;;;;;;;16.13;10.23;;;;;;;22.18;94.78;99522.78;5004773;28;20028;-72
2022/08/24 04:37:56;;;;;;;14.35;9.73;;;;;;;22.23;94.30;99524.75;5023283;28;20034;-72
2022/08/24 04:40:21;;;;;;;17.30;11.32;;;;;;;22.17;95.45;99525.72;5020992;28;20390;-72
2022/08/24 04:42:47;;;;;;;16.95;10.55;;;;;;;22.09;95.96;99526.94;5021130;28;20370;-73
2022/08/24 04:45:12;;;;;;;17.63;11.07;;;;;;;22.15;95.98;99522.44;5021412;28;20030;-73
2022/08/24 04:47:38;;;;;;;15.73;11.65;;;;;;;21.90;97.71;99528.97;5021481;28;20405;-73
2022/08/24 04:50:04;;;;;;;15.80;11.75;;;;;;;21.87;98.40;99525.94;5023099;28;20033;-72
2022/08/24 04:52:29;;;;;;;22.35;12.30;;;;;;;21.88;97.77;99514.09;5021403;28;20045;-72
2022/08/24 04:54:55;;;;;;;20.02;13.98;;;;;;;21.92;98.04;99531.44;5020587;28;20036;-72
2022/08/24 04:57:20;;;;;;;26.77;20.83;;;;;;;22.11;97.09;99530.19;5023283;28;20043;-72
2022/08/24 04:59:46;;;;;;;21.08;14.38;;;;;;;22.08;97.06;99527.16;5020943;28;20040;-72
2022/08/24 05:02:12;;;;;;;18.38;14.90;;;;;;;22.11;97.33;99524.81;5020234;28;20037;-73
2022/08/24 05:04:37;;;;;;;24.85;15.38;;;;;;;21.99;98.46;99524.84;5022885;28;20029;-72
2022/08/24 05:07:03;;;;;;;20.58;14.85;;;;;;;21.96;98.19;99522.63;5005253;28;20038;-72
2022/08/24 05:09:29;;;;;;;22.08;13.77;;;;;;;22.01;98.80;99527.28;5020762;28;20061;-72
2022/08/24 05:11:56;;;;;;;21.70;13.13;;;;;;;22.10;98.70;99535.84;5020794;28;20030;-72
2022/08/24 05:14:21;;;;;;;24.02;18.52;;;;;;;21.89;99.29;99510.34;5023020;28;20129;-73
2022/08/24 05:16:47;;;;;;;32.53;24.33;;;;;;;22.09;99.03;99536.91;5021383;28;20038;-72
2022/08/24 05:19:12;;;;;;;33.92;29.33;;;;;;;22.03;99.39;99527.91;5019680;28;20327;-72
2022/08/24 05:21:38;;;;;;;38.58;29.90;;;;;;;22.02;99.72;99533.50;5023540;28;20354;-73
2022/08/24 05:24:04;;;;;;;24.67;18.80;;;;;;;21.99;99.07;99529.41;5020867;28;20217;-73
2022/08/24 05:26:29;;;;;;;21.67;13.00;;;;;;;22.07;100.00;99539.84;5021084;28;20033;-73
2022/08/24 05:29:00;;;;;;;17.05;12.25;;;;;;;22.15;100.00;99541.31;5021565;28;20101;-73
2022/08/24 05:31:28;;;;;;;15.50;12.50;;;;;;;22.32;100.00;99541.34;5022016;28;20037;-72
2022/08/24 05:33:54;;;;;;;23.90;13.35;;;;;;;22.38;98.65;99548.47;5024225;28;20100;-73
2022/08/24 05:36:26;;;;;;;32.92;25.15;;;;;;;22.33;98.14;99548.38;5025801;28;20316;-73
2022/08/24 05:38:54;;;;;;;18.00;13.82;;;;;;;22.38;97.67;99549.28;5025023;28;20042;-73
2022/08/24 05:41:20;;;;;;;21.08;17.15;;;;;;;22.49;97.74;99547.56;5008329;28;20056;-73
2022/08/24 05:43:46;;;;;;;25.40;22.60;;;;;;;22.54;97.85;99553.88;5023841;28;20335;-73
2022/08/24 05:46:12;;;;;;;43.65;32.47;;;;;;;22.55;97.62;99550.13;5025709;28;20371;-73
2022/08/24 05:48:38;;;;;;;21.42;14.30;;;;;;;22.56;96.82;99548.22;5008076;28;20065;-72
2022/08/24 05:51:04;;;;;;;36.10;30.02;;;;;;;22.70;96.33;99559.53;5023830;28;20064;-73
2022/08/24 05:53:30;;;;;;;20.35;12.88;;;;;;;22.83;95.23;99557.34;5024403;28;20141;-73
2022/08/24 05:55:56;;;;;;;18.48;11.63;;;;;;;22.73;95.89;99559.84;5025480;28;20216;-72
2022/08/24 05:58:21;;;;;;;19.65;12.85;;;;;;;22.70;96.10;99551.44;5024150;28;20091;-73
2022/08/24 06:00:48;;;;;;;31.52;28.13;;;;;;;22.73;96.29;99550.94;5023224;28;20044;-72
2022/08/24 06:03:14;;;;;;;19.48;14.75;;;;;;;22.82;95.61;99538.69;5044102;28;20108;-73
2022/08/24 06:05:43;;;;;;;18.70;12.73;;;;;;;22.87;95.35;99544.97;5043963;28;20040;-73
2022/08/24 06:08:10;;;;;;;22.20;13.40;;;;;;;22.90;95.71;99549.91;5025034;28;20227;-73
2022/08/24 06:10:46;;;;;;;22.23;12.18;;;;;;;22.78;95.71;99514.03;5023766;28;20033;-72
2022/08/24 06:13:13;;;;;;;19.92;12.32;;;;;;;22.99;94.77;99544.09;5023886;28;20049;-73
2022/08/24 06:15:39;;;;;;;28.35;13.18;;;;;;;22.86;96.00;99534.44;5026488;28;20034;-72
2022/08/24 06:18:05;;;;;;;18.27;12.20;;;;;;;22.81;96.40;99535.16;5026924;28;20041;-73
2022/08/24 06:20:36;;;;;;;16.15;12.43;;;;;;;22.79;97.11;99533.75;5023375;28;20030;-73
2022/08/24 06:23:01;;;;;;;19.42;12.98;;;;;;;22.75;97.55;99533.44;5024409;28;20038;-73
2022/08/24 06:28:10;;;;;;;19.17;11.82;;;;;;;22.89;96.63;99534.78;5026344;28;20061;-73
2022/08/24 06:30:36;;;;;;;24.40;13.05;;;;;;;23.00;96.52;99522.25;5027392;28;20025;-73
2022/08/24 06:33:02;;;;;;;18.90;11.85;;;;;;;23.23;96.70;99537.41;5026683;28;20245;-74
2022/08/24 06:35:28;;;;;;;18.38;12.52;;;;;;;23.21;95.60;99534.97;5023313;28;20102;-73
2022/08/24 06:37:53;;;;;;;19.70;12.30;;;;;;;23.19;95.08;99547.91;5024116;28;20029;-73
2022/08/24 06:40:19;;;;;;;22.40;13.30;;;;;;;23.23;95.50;99540.94;5026240;28;20030;-73
2022/08/24 06:42:45;;;;;;;19.30;13.38;;;;;;;23.09;95.81;99541.53;5024063;28;20353;-73
2022/08/24 06:45:11;;;;;;;19.63;12.98;;;;;;;23.32;96.37;99548.59;5023156;28;20224;-73
2022/08/24 06:47:37;;;;;;;20.80;13.02;;;;;;;23.54;94.99;99544.03;5026261;28;20060;-73
2022/08/24 06:50:03;;;;;;;22.83;14.95;;;;;;;23.44;95.54;99542.03;5025182;28;20041;-72
2022/08/24 06:52:28;;;;;;;23.58;13.43;;;;;;;23.46;95.28;99537.19;5030121;28;20065;-72
2022/08/24 06:54:54;;;;;;;24.40;13.20;;;;;;;23.62;93.71;99551.72;5040978;28;20196;-73
2022/08/24 06:57:20;;;;;;;20.13;12.85;;;;;;;23.55;94.28;99548.41;5043970;28;20025;-72
2022/08/24 06:59:45;;;;;;;21.23;14.00;;;;;;;23.43;94.00;99537.69;5043106;28;20076;-73
2022/08/24 07:02:14;;;;;;;21.38;14.70;;;;;;;23.42;94.90;99538.75;5043699;28;20029;-73
2022/08/24 07:04:41;;;;;;;24.52;14.85;;;;;;;23.32;94.88;99538.63;5043595;28;20101;-73
2022/08/24 07:07:07;;;;;;;39.67;30.30;;;;;;;23.25;95.90;99546.09;5043348;28;20032;-73
2022/08/24 07:09:33;;;;;;;33.13;24.05;;;;;;;23.28;94.65;99545.59;5043326;28;20029;-73
2022/08/24 07:11:59;;;;;;;25.48;17.02;;;;;;;23.30;94.42;99529.94;5043461;28;20022;-73
2022/08/24 07:14:24;;;;;;;37.08;28.90;;;;;;;23.43;93.36;99536.88;5043128;28;20033;-73
2022/08/24 07:16:50;;;;;;;28.52;19.65;;;;;;;23.56;93.51;99544.63;5043099;28;20061;-73
2022/08/24 07:19:15;;;;;;;24.98;14.55;;;;;;;23.74;93.94;99544.31;5043575;28;20311;-73
2022/08/24 07:21:41;;;;;;;20.70;14.27;;;;;;;23.90;92.81;99548.00;5043035;28;20323;-73
2022/08/24 07:24:07;;;;;;;20.35;13.07;;;;;;;24.08;90.79;99542.28;5043140;28;20033;-73
2022/08/24 07:26:32;;;;;;;25.65;20.13;;;;;;;24.29;90.98;99550.63;5043167;28;20033;-73
2022/08/24 07:29:04;;;;;;;27.23;18.58;;;;;;;24.74;88.73;99552.91;5043071;28;20037;-73
2022/08/24 07:31:34;;;;;;;25.83;15.13;;;;;;;24.91;83.90;99541.91;5042897;28;20041;-73
2022/08/24 07:34:00;;;;;;;14.98;9.23;;;;;;;24.99;83.25;99542.31;5043009;28;20373;-73
2022/08/24 07:36:26;;;;;;;12.65;8.85;;;;;;;25.16;82.40;99544.84;5043148;28;20037;-73
2022/08/24 07:38:52;;;;;;;19.65;10.55;;;;;;;25.37;82.18;99552.00;5043073;28;20083;-73
2022/08/24 07:41:19;;;;;;;17.90;10.07;;;;;;;25.54;79.87;99540.16;5043108;28;20282;-73
2022/08/24 07:43:48;;;;;;;17.48;10.93;;;;;;;25.70;80.33;99534.53;5042375;28;20037;-73
2022/08/24 07:46:13;;;;;;;12.40;9.45;;;;;;;25.83;77.24;99535.94;5039404;28;20049;-73
2022/08/24 07:48:39;;;;;;;12.43;10.43;;;;;;;25.33;78.45;99537.34;5042900;28;20049;-73
2022/08/24 07:51:09;;;;;;;18.48;9.35;;;;;;;25.32;78.68;99546.56;5042534;28;20319;-74
2022/08/24 07:53:35;;;;;;;16.00;8.65;;;;;;;25.37;80.85;99552.00;5042942;28;20041;-74
2022/08/24 07:56:01;;;;;;;14.63;9.68;;;;;;;25.41;80.21;99560.41;5032038;28;20038;-73
2022/08/24 07:58:26;;;;;;;17.60;10.90;;;;;;;25.49;79.72;99557.22;5023838;28;20038;-73
2022/08/24 08:00:52;;;;;;;18.10;8.82;;;;;;;25.37;79.11;99548.47;5021342;28;20327;-73
2022/08/24 08:03:18;;;;;;;12.20;7.22;;;;;;;25.30;78.38;99558.75;5021689;28;20034;-73
2022/08/24 08:05:44;;;;;;;13.02;7.60;;;;;;;25.44;78.29;99549.88;5023193;28;20033;-73
2022/08/24 08:08:10;;;;;;;11.68;7.18;;;;;;;25.61;78.12;99549.66;5020959;28;20064;-73
2022/08/24 08:10:36;;;;;;;10.38;7.10;;;;;;;25.92;78.06;99553.31;5021804;28;20080;-73
2022/08/24 08:13:04;;;;;;;9.68;7.22;;;;;;;26.44;76.85;99557.81;5004751;28;20096;-73
2022/08/24 08:15:30;;;;;;;13.45;9.10;;;;;;;26.24;74.57;99555.88;5023298;28;20036;-73
2022/08/24 08:17:56;;;;;;;11.02;7.85;;;;;;;26.05;76.09;99560.16;5022985;28;20029;-73
2022/08/24 08:20:22;;;;;;;11.65;8.00;;;;;;;25.98;76.61;99548.72;5022411;28;20087;-73
2022/08/24 08:25:33;;;;;;;14.75;11.27;;;;;;;25.88;77.23;99543.28;5021218;28;20087;-73
2022/08/24 08:27:59;;;;;;;14.88;11.20;;;;;;;25.89;77.41;99534.88;5003599;28;20045;-73
2022/08/24 08:30:24;;;;;;;8.93;6.85;;;;;;;25.96;76.52;99548.19;5021699;28;20029;-73
2022/08/24 08:32:50;;;;;;;9.98;6.85;;;;;;;26.11;76.66;99553.66;5022052;28;20044;-73
2022/08/24 08:35:15;;;;;;;12.35;7.10;;;;;;;26.13;76.27;99556.13;5004416;28;20026;-73
2022/08/24 08:37:41;;;;;;;9.65;6.68;;;;;;;26.20;75.67;99545.81;5023616;28;20018;-73
2022/08/24 08:40:18;;;;;;;10.13;7.80;;;;;;;26.34;75.23;99557.81;5024888;28;20033;-73
2022/08/24 08:43:27;;;;;;;14.85;6.68;;;;;;;26.46;74.91;99552.13;5022422;28;20335;-73
2022/08/24 08:46:07;;;;;;;13.88;6.97;;;;;;;26.54;75.02;99546.97;5013893;28;20045;-73
2022/08/24 08:49:14;;;;;;;11.32;7.35;;;;;;;26.51;74.60;99533.94;5020822;28;20613;-73
2022/08/24 08:51:49;;;;;;;13.93;9.77;;;;;;;26.50;74.52;99531.50;5016281;28;20042;-73
2022/08/24 08:54:32;;;;;;;11.13;7.03;;;;;;;26.67;74.64;99535.56;5021984;28;20398;-73
2022/08/24 08:57:18;;;;;;;12.65;6.65;;;;;;;27.02;72.85;99533.91;5022735;28;20033;-73
2022/08/24 08:59:56;;;;;;;11.93;6.25;;;;;;;27.36;72.79;99528.69;5022062;28;20092;-73
2022/08/24 09:02:30;;;;;;;13.45;6.45;;;;;;;27.34;69.60;99537.09;5023467;28;20049;-73
2022/08/24 09:05:38;;;;;;;9.05;6.05;;;;;;;27.48;68.76;99528.34;5020557;28;20045;-73
2022/08/24 09:08:10;;;;;;;10.80;5.63;;;;;;;27.69;67.77;99532.66;5021850;28;20049;-73
2022/08/24 09:11:04;;;;;;;10.13;6.28;;;;;;;28.03;67.76;99524.56;5027138;28;20049;-73
2022/08/24 09:14:04;;;;;;;11.45;7.03;;;;;;;28.31;66.05;99527.69;5026772;28;20034;-73
2022/08/24 09:16:50;;;;;;;10.05;8.20;;;;;;;28.28;67.32;99521.72;5025926;28;20037;-73
2022/08/24 09:19:22;;;;;;;11.88;8.05;;;;;;;28.23;66.11;99523.66;5025585;28;20073;-73
2022/08/24 09:22:11;;;;;;;10.20;6.28;;;;;;;28.02;64.43;99519.41;5024379;28;20057;-73
2022/08/24 09:24:53;;;;;;;9.55;7.00;;;;;;;28.12;66.38;99530.25;5034778;28;20095;-73
2022/08/24 09:27:42;;;;;;;14.27;8.52;;;;;;;28.25;65.54;99533.19;5043934;28;20057;-73
2022/08/24 09:30:10;;;;;;;11.55;7.18;;;;;;;28.20;66.36;99529.66;5045288;28;20160;-73
2022/08/24 09:32:58;;;;;;;14.38;9.77;;;;;;;28.26;65.33;99523.91;5045038;28;20148;-73
2022/08/24 09:35:37;;;;;;;13.15;8.80;;;;;;;28.26;65.33;99518.47;5042802;28;20045;-73
2022/08/24 09:38:37;;;;;;;10.73;7.63;;;;;;;28.23;63.46;99510.88;5045489;28;20048;-73
2022/08/24 09:41:39;;;;;;;12.85;9.30;;;;;;;28.10;64.26;99497.06;5039047;28;20034;-73
2022/08/24 09:44:29;;;;;;;12.25;5.80;;;;;;;28.28;65.33;99494.50;5044991;28;20087;-73
2022/08/24 09:47:19;;;;;;;13.88;6.82;;;;;;;28.16;63.55;99485.84;5041228;28;20040;-73
2022/08/24 09:50:11;;;;;;;10.82;6.30;;;;;;;28.28;64.26;99480.88;5044586;28;20041;-74
2022/08/24 09:53:06;;;;;;;8.30;5.60;;;;;;;28.27;64.45;99473.81;5045069;28;20025;-74
2022/08/24 09:55:47;;;;;;;9.50;6.68;;;;;;;28.23;62.56;99470.03;5044614;28;20033;-74
2022/08/24 09:58:30;;;;;;;8.70;6.18;;;;;;;28.32;64.82;99472.16;5038752;28;20222;-73
2022/08/24 10:01:07;;;;;;;9.60;5.97;;;;;;;28.44;61.77;99470.66;5026953;28;20037;-73
2022/08/24 10:04:06;;;;;;;12.70;6.55;;;;;;;28.56;62.91;99459.41;5044946;28;20188;-73
2022/08/24 10:06:50;;;;;;;11.90;6.43;;;;;;;28.61;61.80;99456.63;5044639;28;20365;-73
2022/08/24 10:09:39;;;;;;;10.52;6.22;;;;;;;28.63;61.08;99456.34;5045037;28;20319;-73
2022/08/24 10:12:13;;;;;;;13.52;6.38;;;;;;;28.71;62.59;99448.34;5037796;28;20025;-73
2022/08/24 10:15:08;;;;;;;8.95;5.65;;;;;;;28.85;59.65;99437.59;5044439;28;20265;-73
2022/08/24 10:17:55;;;;;;;9.57;5.55;;;;;;;28.85;60.21;99429.44;5044369;28;20041;-73
2022/08/24 10:20:32;;;;;;;12.57;5.90;;;;;;;28.84;58.95;99427.81;5027211;28;20037;-73
2022/08/24 10:23:29;;;;;;;13.85;6.07;;;;;;;28.78;60.49;99427.03;5043521;28;20393;-74
2022/08/24 10:26:03;;;;;;;15.57;6.03;;;;;;;28.73;59.25;99391.66;5044280;28;20025;-73
2022/08/24 10:29:07;;;;;;;10.55;5.97;;;;;;;29.08;58.08;99433.25;5044396;28;20079;-73
2022/08/24 10:31:41;;;;;;;10.65;5.75;;;;;;;29.13;59.19;99434.03;5044256;28;20060;-73
2022/08/24 10:34:22;;;;;;;8.32;5.03;;;;;;;29.25;58.54;99409.06;5044257;28;20026;-73
2022/08/24 10:37:03;;;;;;;9.77;4.60;;;;;;;29.52;56.17;99435.72;5043759;28;20120;-73
2022/08/24 10:39:50;;;;;;;11.77;4.85;;;;;;;29.39;55.93;99434.50;5043932;28;20100;-74
2022/08/24 10:45:55;;;;;;;12.73;5.85;;;;;;;29.31;56.90;99434.34;5043927;28;20036;-73
2022/08/24 10:48:30;;;;;;;10.65;5.75;;;;;;;29.38;58.20;99427.44;5041857;28;20103;-73
2022/08/24 10:50:58;;;;;;;15.82;5.68;;;;;;;29.31;57.50;99424.25;5027627;28;20032;-73
2022/08/24 10:53:25;;;;;;;11.52;5.22;;;;;;;29.32;57.12;99420.41;5043856;28;20038;-73
2022/08/24 10:56:04;;;;;;;17.75;4.82;;;;;;;29.47;56.99;99414.78;5043277;28;20128;-73
2022/08/24 10:58:30;;;;;;;18.13;5.60;;;;;;;29.47;56.67;99417.50;5043900;28;20044;-73
2022/08/24 11:01:13;;;;;;;16.88;5.50;;;;;;;29.46;56.61;99412.34;5043577;28;20021;-73
2022/08/24 11:04:12;;;;;;;13.98;5.55;;;;;;;29.47;57.26;99409.34;5038197;28;20056;-73
2022/08/24 11:07:02;;;;;;;14.65;5.53;;;;;;;29.44;56.57;99403.66;4990641;28;20037;-73
2022/08/24 11:09:52;;;;;;;14.60;5.95;;;;;;;29.57;57.52;99399.38;5043931;28;20048;-73
2022/08/24 11:12:42;;;;;;;14.80;5.88;;;;;;;29.45;55.29;99399.81;5043119;28;20036;-73
2022/08/24 11:15:16;;;;;;;12.48;5.28;;;;;;;29.22;56.88;99404.19;5043444;28;20033;-74
2022/08/24 11:18:01;;;;;;;17.70;5.07;;;;;;;29.17;57.72;99409.72;5043046;28;20120;-73
2022/08/24 11:20:34;;;;;;;18.50;5.05;;;;;;;29.11;56.24;99403.47;5043265;28;20268;-73
2022/08/24 11:23:13;;;;;;;10.70;4.60;;;;;;;29.21;56.60;99402.56;5043410;28;20316;-73
2022/08/24 11:25:56;;;;;;;17.50;5.72;;;;;;;29.28;58.33;99394.03;5037192;28;20218;-73
2022/08/24 11:28:41;;;;;;;14.85;5.22;;;;;;;29.34;58.22;99384.69;5042857;28;20241;-73
2022/08/24 11:31:37;;;;;;;16.83;4.97;;;;;;;29.53;56.20;99383.59;5025243;28;20221;-73
2022/08/24 11:34:07;;;;;;;20.88;5.90;;;;;;;29.61;58.53;99375.84;5043577;28;20060;-73
2022/08/24 11:36:36;;;;;;;18.55;5.40;;;;;;;29.64;58.34;99378.81;5025270;28;20104;-73
2022/08/24 11:39:14;;;;;;;14.30;4.78;;;;;;;29.82;55.39;99368.97;5043281;28;20100;-73
2022/08/24 11:42:08;;;;;;;12.30;5.18;;;;;;;29.85;55.47;99377.38;5042867;28;20040;-73
2022/08/24 11:44:40;;;;;;;11.60;4.45;;;;;;;29.79;55.86;99384.03;5037674;28;20029;-73
2022/08/24 11:47:54;;;;;;;16.15;5.00;;;;;;;29.75;56.06;99384.91;5041967;28;20036;-73
2022/08/24 11:50:38;;;;;;;25.23;5.13;;;;;;;29.79;57.12;99378.56;5023599;28;20041;-73